Time,TemperatureF,DewpointF,PressureIn,WindDirection,WindDirectionDegrees,WindSpeedMPH,WindSpeedGustMPH,Humidity,HourlyPrecipIn,Conditions,Clouds,dailyrainin,SolarRadiationWatts/m^2,SoftwareType,DateUTC
2013-06-09 00:02:00,49.0,44.0,-100.00,ESE,113,0.0,0.0,83,0.00,,,0.00,0.000000,,2013-06-09 05:02:00,
2013-06-09 00:12:00,46.0,43.0,-100.00,NE,48,0.0,3.0,88,0.00,,,0.00,0.000000,,2013-06-09 05:12:00,
2013-06-09 00:32:00,46.0,43.0,-100.00,NE,48,0.0,3.0,88,0.00,,,0.00,0.000000,,2013-06-09 05:32:00,
2013-06-09 00:42:00,46.0,43.0,-100.00,NE,48,0.0,3.0,88,0.00,,,0.00,0.000000,,2013-06-09 05:42:00,
2013-06-09 00:52:00,46.0,43.0,-100.00,NE,48,0.0,3.0,88,0.00,,,0.00,0.000000,,2013-06-09 05:52:00,
2013-06-09 01:02:00,46.0,43.0,-100.00,NE,48,0.0,3.0,88,0.00,,,0.00,0.000000,,2013-06-09 06:02:00,
2013-06-09 01:12:00,44.0,42.0,-100.00,NE,55,0.0,0.0,94,0.00,,,0.00,0.000000,,2013-06-09 06:12:00,
2013-06-09 01:32:00,44.0,42.0,-100.00,NE,55,0.0,0.0,94,0.00,,,0.00,0.000000,,2013-06-09 06:32:00,
2013-06-09 01:42:00,44.0,42.0,-100.00,NE,55,0.0,0.0,94,0.00,,,0.00,0.000000,,2013-06-09 06:42:00,
2013-06-09 01:52:00,44.0,42.0,-100.00,NE,55,0.0,0.0,94,0.00,,,0.00,0.000000,,2013-06-09 06:52:00,
2013-06-09 02:02:00,44.0,42.0,-100.00,NE,55,0.0,0.0,94,0.00,,,0.00,0.000000,,2013-06-09 07:02:00,
2013-06-09 02:12:00,42.0,41.0,-100.00,WNW,296,0.0,0.0,96,0.00,,,0.00,0.000000,,2013-06-09 07:12:00,
2013-06-09 02:32:00,42.0,41.0,-100.00,WNW,296,0.0,0.0,96,0.00,,,0.00,0.000000,,2013-06-09 07:32:00,
2013-06-09 02:42:00,42.0,41.0,-100.00,WNW,296,0.0,0.0,96,0.00,,,0.00,0.000000,,2013-06-09 07:42:00,
2013-06-09 02:52:00,42.0,41.0,-100.00,WNW,296,0.0,0.0,96,0.00,,,0.00,0.000000,,2013-06-09 07:52:00,
2013-06-09 03:02:00,42.0,41.0,-100.00,WNW,296,0.0,0.0,96,0.00,,,0.00,0.000000,,2013-06-09 08:02:00,
2013-06-09 03:12:00,41.0,40.0,-100.00,NNE,20,0.0,0.0,96,0.00,,,-99.99,0.000000,,2013-06-09 08:12:00,
2013-06-09 03:32:00,41.0,40.0,-100.00,NNE,20,0.0,0.0,96,0.00,,,-99.99,0.000000,,2013-06-09 08:32:00,
2013-06-09 03:42:00,41.0,40.0,-100.00,NNE,20,0.0,0.0,96,0.00,,,-99.99,0.000000,,2013-06-09 08:42:00,
2013-06-09 03:53:00,41.0,40.0,-100.00,NNE,20,0.0,0.0,96,0.00,,,-99.99,0.000000,,2013-06-09 08:53:00,
2013-06-09 04:02:00,41.0,40.0,-100.00,NNE,20,0.0,0.0,96,0.00,,,-99.99,0.000000,,2013-06-09 09:02:00,
2013-06-09 04:12:00,39.0,38.0,-100.00,NNE,32,0.0,0.0,96,0.00,,,0.00,0.000000,,2013-06-09 09:12:00,
2013-06-09 04:33:00,39.0,38.0,-100.00,NNE,32,0.0,0.0,96,0.00,,,0.00,0.000000,,2013-06-09 09:33:00,
2013-06-09 04:43:00,39.0,38.0,-100.00,NNE,32,0.0,0.0,96,0.00,,,0.00,0.000000,,2013-06-09 09:43:00,
2013-06-09 04:52:00,39.0,38.0,-100.00,NNE,32,0.0,0.0,96,0.00,,,0.00,0.000000,,2013-06-09 09:52:00,
2013-06-09 05:03:00,39.0,38.0,-100.00,NNE,32,0.0,0.0,96,0.00,,,0.00,0.000000,,2013-06-09 10:03:00,
2013-06-09 05:12:00,39.0,38.0,-100.00,NE,50,0.0,0.0,97,0.00,,,0.00,3.000000,,2013-06-09 10:12:00,
2013-06-09 05:32:00,39.0,38.0,-100.00,NE,50,0.0,0.0,97,0.00,,,0.00,3.000000,,2013-06-09 10:32:00,
2013-06-09 05:43:00,39.0,38.0,-100.00,NE,50,0.0,0.0,97,0.00,,,0.00,3.000000,,2013-06-09 10:43:00,
2013-06-09 05:52:00,39.0,38.0,-100.00,NE,50,0.0,0.0,97,0.00,,,0.00,3.000000,,2013-06-09 10:52:00,
2013-06-09 06:02:00,39.0,38.0,-100.00,NE,50,0.0,0.0,97,0.00,,,0.00,3.000000,,2013-06-09 11:02:00,
2013-06-09 06:12:00,46.0,44.0,-100.00,ENE,65,2.0,2.0,91,0.00,,,0.00,82.000000,,2013-06-09 11:12:00,
2013-06-09 06:32:00,46.0,44.0,-100.00,ENE,65,2.0,2.0,91,0.00,,,0.00,82.000000,,2013-06-09 11:32:00,
2013-06-09 06:42:00,46.0,44.0,-100.00,ENE,65,2.0,2.0,91,0.00,,,0.00,82.000000,,2013-06-09 11:42:00,
2013-06-09 06:53:00,46.0,44.0,-100.00,ENE,65,2.0,2.0,91,0.00,,,0.00,82.000000,,2013-06-09 11:53:00,
2013-06-09 07:02:00,46.0,44.0,-100.00,ENE,65,2.0,2.0,91,0.00,,,0.00,82.000000,,2013-06-09 12:02:00,
2013-06-09 07:12:00,55.0,47.0,-100.00,East,80,4.0,5.0,74,0.00,,,0.00,212.000000,,2013-06-09 12:12:00,
2013-06-09 07:32:00,55.0,47.0,-100.00,East,80,4.0,5.0,74,0.00,,,0.00,212.000000,,2013-06-09 12:32:00,
2013-06-09 08:02:00,55.0,47.0,-100.00,East,80,4.0,5.0,74,0.00,,,0.00,212.000000,,2013-06-09 13:02:00,
2013-06-09 08:12:00,60.0,48.0,-100.00,East,92,3.0,7.0,64,0.00,,,0.00,295.000000,,2013-06-09 13:12:00,
2013-06-09 08:32:00,60.0,48.0,-100.00,East,92,3.0,7.0,64,0.00,,,0.00,295.000000,,2013-06-09 13:32:00,
2013-06-09 08:42:00,60.0,48.0,-100.00,East,92,3.0,7.0,64,0.00,,,0.00,295.000000,,2013-06-09 13:42:00,
2013-06-09 08:52:00,60.0,48.0,-100.00,East,92,3.0,7.0,64,0.00,,,0.00,295.000000,,2013-06-09 13:52:00,
2013-06-09 09:02:00,60.0,48.0,-100.00,East,92,3.0,7.0,64,0.00,,,0.00,295.000000,,2013-06-09 14:02:00,
2013-06-09 09:12:00,64.0,48.0,-100.00,ESE,108,4.0,8.0,56,0.00,,,0.00,414.000000,,2013-06-09 14:12:00,
2013-06-09 09:32:00,64.0,48.0,-100.00,ESE,108,4.0,8.0,56,0.00,,,0.00,414.000000,,2013-06-09 14:32:00,
2013-06-09 09:43:00,64.0,48.0,-100.00,ESE,108,4.0,8.0,56,0.00,,,0.00,414.000000,,2013-06-09 14:43:00,
2013-06-09 09:52:00,64.0,48.0,-100.00,ESE,108,4.0,8.0,56,0.00,,,0.00,414.000000,,2013-06-09 14:52:00,
2013-06-09 10:02:00,64.0,48.0,-100.00,ESE,108,4.0,8.0,56,0.00,,,0.00,414.000000,,2013-06-09 15:02:00,
2013-06-09 10:12:00,64.0,48.0,-100.00,East,100,5.0,11.0,57,0.00,,,-99.99,349.000000,,2013-06-09 15:12:00,
2013-06-09 10:33:00,64.0,48.0,-100.00,East,100,5.0,11.0,57,0.00,,,-99.99,349.000000,,2013-06-09 15:33:00,
2013-06-09 10:43:00,64.0,48.0,-100.00,East,100,5.0,11.0,57,0.00,,,-99.99,349.000000,,2013-06-09 15:43:00,
2013-06-09 10:53:00,64.0,48.0,-100.00,East,100,5.0,11.0,57,0.00,,,-99.99,349.000000,,2013-06-09 15:53:00,
2013-06-09 11:03:00,64.0,48.0,-100.00,East,100,5.0,11.0,57,0.00,,,-99.99,349.000000,,2013-06-09 16:03:00,
2013-06-09 11:12:00,70.0,50.0,-100.00,SE,127,6.0,15.0,49,0.00,,,0.00,613.000000,,2013-06-09 16:12:00,
2013-06-09 11:33:00,70.0,50.0,-100.00,SE,127,6.0,15.0,49,0.00,,,0.00,613.000000,,2013-06-09 16:33:00,
2013-06-09 11:43:00,70.0,50.0,-100.00,SE,127,6.0,15.0,49,0.00,,,0.00,613.000000,,2013-06-09 16:43:00,
2013-06-09 11:53:00,70.0,50.0,-100.00,SE,127,6.0,15.0,49,0.00,,,0.00,613.000000,,2013-06-09 16:53:00,
2013-06-09 12:02:00,70.0,50.0,-100.00,SE,127,6.0,15.0,49,0.00,,,0.00,613.000000,,2013-06-09 17:02:00,
2013-06-09 12:12:00,68.0,51.0,-100.00,ESE,121,7.0,13.0,54,0.00,,,0.00,581.000000,,2013-06-09 17:12:00,
2013-06-09 12:32:00,68.0,51.0,-100.00,ESE,121,7.0,13.0,54,0.00,,,0.00,581.000000,,2013-06-09 17:32:00,
2013-06-09 12:42:00,68.0,51.0,-100.00,ESE,121,7.0,13.0,54,0.00,,,0.00,581.000000,,2013-06-09 17:42:00,
2013-06-09 12:52:00,68.0,51.0,-100.00,ESE,121,7.0,13.0,54,0.00,,,0.00,581.000000,,2013-06-09 17:52:00,
2013-06-09 13:02:00,68.0,51.0,-100.00,ESE,121,7.0,13.0,54,0.00,,,0.00,581.000000,,2013-06-09 18:02:00,
2013-06-09 13:12:00,68.0,52.0,-100.00,SE,127,6.0,13.0,56,0.00,,,0.00,370.000000,,2013-06-09 18:12:00,
2013-06-09 13:33:00,68.0,52.0,-100.00,SE,127,6.0,13.0,56,0.00,,,0.00,370.000000,,2013-06-09 18:33:00,
2013-06-09 13:42:00,68.0,52.0,-100.00,SE,127,6.0,13.0,56,0.00,,,0.00,370.000000,,2013-06-09 18:42:00,
2013-06-09 13:52:00,68.0,52.0,-100.00,SE,127,6.0,13.0,56,0.00,,,0.00,370.000000,,2013-06-09 18:52:00,
2013-06-09 14:02:00,68.0,52.0,-100.00,SE,127,6.0,13.0,56,0.00,,,0.00,370.000000,,2013-06-09 19:02:00,
2013-06-09 14:12:00,69.0,52.0,-100.00,ESE,103,7.0,14.0,55,0.00,,,0.00,463.000000,,2013-06-09 19:12:00,
2013-06-09 14:32:00,69.0,52.0,-100.00,ESE,103,7.0,14.0,55,0.00,,,0.00,463.000000,,2013-06-09 19:32:00,
2013-06-09 14:43:00,69.0,52.0,-100.00,ESE,103,7.0,14.0,55,0.00,,,0.00,463.000000,,2013-06-09 19:43:00,
2013-06-09 14:52:00,69.0,52.0,-100.00,ESE,103,7.0,14.0,55,0.00,,,0.00,463.000000,,2013-06-09 19:52:00,
2013-06-09 15:02:00,69.0,52.0,-100.00,ESE,103,7.0,14.0,55,0.00,,,0.00,463.000000,,2013-06-09 20:02:00,
2013-06-09 15:12:00,69.0,51.0,-100.00,ESE,108,8.0,15.0,52,0.00,,,0.00,427.000000,,2013-06-09 20:12:00,
2013-06-09 15:32:00,69.0,51.0,-100.00,ESE,108,8.0,15.0,52,0.00,,,0.00,427.000000,,2013-06-09 20:32:00,
2013-06-09 15:42:00,69.0,51.0,-100.00,ESE,108,8.0,15.0,52,0.00,,,0.00,427.000000,,2013-06-09 20:42:00,
2013-06-09 15:52:00,69.0,51.0,-100.00,ESE,108,8.0,15.0,52,0.00,,,0.00,427.000000,,2013-06-09 20:52:00,
2013-06-09 16:02:00,69.0,51.0,-100.00,ESE,108,8.0,15.0,52,0.00,,,0.00,427.000000,,2013-06-09 21:02:00,
2013-06-09 16:12:00,69.0,52.0,-100.00,ESE,110,7.0,12.0,54,0.00,,,0.00,281.000000,,2013-06-09 21:12:00,
2013-06-09 16:33:00,69.0,52.0,-100.00,ESE,110,7.0,12.0,54,0.00,,,0.00,281.000000,,2013-06-09 21:33:00,
2013-06-09 16:44:00,69.0,52.0,-100.00,ESE,110,7.0,12.0,54,0.00,,,0.00,281.000000,,2013-06-09 21:44:00,
2013-06-09 16:53:00,69.0,52.0,-100.00,ESE,110,7.0,12.0,54,0.00,,,0.00,281.000000,,2013-06-09 21:53:00,
2013-06-09 17:02:00,69.0,52.0,-100.00,ESE,110,7.0,12.0,54,0.00,,,0.00,281.000000,,2013-06-09 22:02:00,
2013-06-09 17:12:00,70.0,52.0,-100.00,ESE,120,7.0,14.0,53,0.00,,,0.00,301.000000,,2013-06-09 22:12:00,
2013-06-09 17:33:00,70.0,52.0,-100.00,ESE,120,7.0,14.0,53,0.00,,,0.00,301.000000,,2013-06-09 22:33:00,
2013-06-09 17:42:00,70.0,52.0,-100.00,ESE,120,7.0,14.0,53,0.00,,,0.00,301.000000,,2013-06-09 22:42:00,
2013-06-09 17:52:00,70.0,52.0,-100.00,ESE,120,7.0,14.0,53,0.00,,,0.00,301.000000,,2013-06-09 22:52:00,
2013-06-09 18:02:00,70.0,52.0,-100.00,ESE,120,7.0,14.0,53,0.00,,,0.00,301.000000,,2013-06-09 23:02:00,
2013-06-09 18:12:00,69.0,52.0,-100.00,ESE,102,6.0,13.0,55,0.00,,,0.00,159.000000,,2013-06-09 23:12:00,
2013-06-09 18:32:00,69.0,52.0,-100.00,ESE,102,6.0,13.0,55,0.00,,,0.00,159.000000,,2013-06-09 23:32:00,
2013-06-09 18:43:00,69.0,52.0,-100.00,ESE,102,6.0,13.0,55,0.00,,,0.00,159.000000,,2013-06-09 23:43:00,
2013-06-09 18:52:00,69.0,52.0,-100.00,ESE,102,6.0,13.0,55,0.00,,,0.00,159.000000,,2013-06-09 23:52:00,
2013-06-09 19:02:00,69.0,52.0,-100.00,ESE,102,6.0,13.0,55,0.00,,,0.00,159.000000,,2013-06-10 00:02:00,
2013-06-09 19:12:00,68.0,51.0,-100.00,ESE,103,6.0,13.0,54,0.00,,,0.00,128.000000,,2013-06-10 00:12:00,
2013-06-09 19:32:00,68.0,51.0,-100.00,ESE,103,6.0,13.0,54,0.00,,,0.00,128.000000,,2013-06-10 00:32:00,
2013-06-09 19:42:00,68.0,51.0,-100.00,ESE,103,6.0,13.0,54,0.00,,,0.00,128.000000,,2013-06-10 00:42:00,
2013-06-09 19:52:00,68.0,51.0,-100.00,ESE,103,6.0,13.0,54,0.00,,,0.00,128.000000,,2013-06-10 00:52:00,
2013-06-09 20:02:00,68.0,51.0,-100.00,ESE,103,6.0,13.0,54,0.00,,,0.00,128.000000,,2013-06-10 01:02:00,
2013-06-09 20:12:00,66.0,52.0,-100.00,ESE,103,5.0,12.0,60,0.00,,,0.00,56.000000,,2013-06-10 01:12:00,
2013-06-09 20:32:00,66.0,52.0,-100.00,ESE,103,5.0,12.0,60,0.00,,,0.00,56.000000,,2013-06-10 01:32:00,
2013-06-09 20:43:00,66.0,52.0,-100.00,ESE,103,5.0,12.0,60,0.00,,,0.00,56.000000,,2013-06-10 01:43:00,
2013-06-09 20:52:00,66.0,52.0,-100.00,ESE,103,5.0,12.0,60,0.00,,,0.00,56.000000,,2013-06-10 01:52:00,
2013-06-09 21:02:00,66.0,52.0,-100.00,ESE,103,5.0,12.0,60,0.00,,,0.00,56.000000,,2013-06-10 02:02:00,
2013-06-09 21:12:00,64.0,51.0,-100.00,East,82,5.0,11.0,63,0.00,,,0.00,3.000000,,2013-06-10 02:12:00,
2013-06-09 21:32:00,64.0,51.0,-100.00,East,82,5.0,11.0,63,0.00,,,0.00,3.000000,,2013-06-10 02:32:00,
2013-06-09 21:42:00,64.0,51.0,-100.00,East,82,5.0,11.0,63,0.00,,,0.00,3.000000,,2013-06-10 02:42:00,
2013-06-09 21:52:00,64.0,51.0,-100.00,East,82,5.0,11.0,63,0.00,,,0.00,3.000000,,2013-06-10 02:52:00,
2013-06-09 22:02:00,64.0,51.0,-100.00,East,82,5.0,11.0,63,0.00,,,0.00,3.000000,,2013-06-10 03:02:00,
2013-06-09 22:12:00,63.0,51.0,-100.00,East,86,5.0,8.0,65,0.00,,,0.00,0.000000,,2013-06-10 03:12:00,
2013-06-09 22:33:00,63.0,51.0,-100.00,East,86,5.0,8.0,65,0.00,,,0.00,0.000000,,2013-06-10 03:33:00,
2013-06-09 22:43:00,63.0,51.0,-100.00,East,86,5.0,8.0,65,0.00,,,0.00,0.000000,,2013-06-10 03:43:00,
2013-06-09 22:53:00,63.0,51.0,-100.00,East,86,5.0,8.0,65,0.00,,,0.00,0.000000,,2013-06-10 03:53:00,
2013-06-09 23:03:00,63.0,51.0,-100.00,East,86,5.0,8.0,65,0.00,,,0.00,0.000000,,2013-06-10 04:03:00,
2013-06-09 23:12:00,63.0,53.0,-100.00,East,89,4.0,9.0,69,0.00,,,0.00,0.000000,,2013-06-10 04:12:00,
2013-06-09 23:33:00,63.0,53.0,-100.00,East,89,4.0,9.0,69,0.00,,,0.00,0.000000,,2013-06-10 04:33:00,
2013-06-09 23:42:00,63.0,53.0,-100.00,East,89,4.0,9.0,69,0.00,,,0.00,0.000000,,2013-06-10 04:42:00,
2013-06-09 23:53:00,63.0,53.0,-100.00,East,89,4.0,9.0,69,0.00,,,0.00,0.000000,,2013-06-10 04:53:00,